sensor_id;sensor_type;location;lat;lon;timestamp;temperature;humidity
11385;DHT22;5747;56.748;13.882;2024-03-23T00:53:12;0.80;99.90
11385;DHT22;5747;56.748;13.882;2024-03-23T00:55:38;0.80;99.90
11385;DHT22;5747;56.748;13.882;2024-03-23T00:58:05;0.70;99.90
11385;DHT22;5747;56.748;13.882;2024-03-23T01:00:31;0.70;99.90
11385;DHT22;5747;56.748;13.882;2024-03-23T01:02:58;0.50;99.90
11385;DHT22;5747;56.748;13.882;2024-03-23T01:05:24;0.30;99.90
11385;DHT22;5747;56.748;13.882;2024-03-23T01:07:52;0.20;99.90
11385;DHT22;5747;56.748;13.882;2024-03-23T01:10:19;0.10;99.90
11385;DHT22;5747;56.748;13.882;2024-03-23T01:12:46;0.00;99.90
11385;DHT22;5747;56.748;13.882;2024-03-23T01:15:12;0.00;99.90
11385;DHT22;5747;56.748;13.882;2024-03-23T01:17:40;-0.10;99.90
11385;DHT22;5747;56.748;13.882;2024-03-23T01:20:07;-0.20;99.90
11385;DHT22;5747;56.748;13.882;2024-03-23T01:22:34;-0.20;99.90
11385;DHT22;5747;56.748;13.882;2024-03-23T01:25:01;-0.20;99.90
11385;DHT22;5747;56.748;13.882;2024-03-23T01:27:28;-0.20;99.90
11385;DHT22;5747;56.748;13.882;2024-03-23T01:29:55;-0.20;99.90
11385;DHT22;5747;56.748;13.882;2024-03-23T01:32:21;-0.20;99.90
11385;DHT22;5747;56.748;13.882;2024-03-23T01:34:49;-0.20;99.90
11385;DHT22;5747;56.748;13.882;2024-03-23T01:37:15;-0.20;99.90
11385;DHT22;5747;56.748;13.882;2024-03-23T01:39:42;-0.20;99.90
11385;DHT22;5747;56.748;13.882;2024-03-23T01:42:08;-0.20;99.90
11385;DHT22;5747;56.748;13.882;2024-03-23T01:44:37;-0.30;99.90
11385;DHT22;5747;56.748;13.882;2024-03-23T01:47:03;-0.30;99.90
11385;DHT22;5747;56.748;13.882;2024-03-23T01:49:30;-0.40;99.90
11385;DHT22;5747;56.748;13.882;2024-03-23T01:51:57;-0.40;99.90
11385;DHT22;5747;56.748;13.882;2024-03-23T01:54:25;-0.40;99.90
11385;DHT22;5747;56.748;13.882;2024-03-23T01:56:51;-0.50;99.90
11385;DHT22;5747;56.748;13.882;2024-03-23T01:59:18;-0.50;99.90
11385;DHT22;5747;56.748;13.882;2024-03-23T02:01:46;-0.50;99.90
11385;DHT22;5747;56.748;13.882;2024-03-23T02:04:14;-0.50;99.90
11385;DHT22;5747;56.748;13.882;2024-03-23T02:06:40;-0.50;99.90
11385;DHT22;5747;56.748;13.882;2024-03-23T02:09:07;-0.50;99.90
11385;DHT22;5747;56.748;13.882;2024-03-23T02:11:33;-0.40;99.90
11385;DHT22;5747;56.748;13.882;2024-03-23T02:14:01;-0.40;99.90
11385;DHT22;5747;56.748;13.882;2024-03-23T02:16:27;-0.50;99.90
11385;DHT22;5747;56.748;13.882;2024-03-23T02:18:56;-0.50;99.90
11385;DHT22;5747;56.748;13.882;2024-03-23T02:21:22;-0.50;99.90
11385;DHT22;5747;56.748;13.882;2024-03-23T02:23:51;-0.30;99.90
11385;DHT22;5747;56.748;13.882;2024-03-23T02:26:17;-0.20;99.90
11385;DHT22;5747;56.748;13.882;2024-03-23T02:28:44;-0.10;99.90
11385;DHT22;5747;56.748;13.882;2024-03-23T02:31:10;0.00;99.90
11385;DHT22;5747;56.748;13.882;2024-03-23T02:33:37;0.20;99.90
11385;DHT22;5747;56.748;13.882;2024-03-23T02:36:04;0.50;99.90
11385;DHT22;5747;56.748;13.882;2024-03-23T02:38:31;0.60;99.90
11385;DHT22;5747;56.748;13.882;2024-03-23T02:41:03;0.70;99.90
11385;DHT22;5747;56.748;13.882;2024-03-23T02:43:30;0.80;99.90
11385;DHT22;5747;56.748;13.882;2024-03-23T02:45:56;0.80;99.90
11385;DHT22;5747;56.748;13.882;2024-03-23T02:48:23;0.90;99.90
11385;DHT22;5747;56.748;13.882;2024-03-23T02:50:50;1.00;99.90
11385;DHT22;5747;56.748;13.882;2024-03-23T02:53:17;1.00;99.90
11385;DHT22;5747;56.748;13.882;2024-03-23T02:55:43;1.10;99.90
11385;DHT22;5747;56.748;13.882;2024-03-23T02:58:12;1.10;99.90
11385;DHT22;5747;56.748;13.882;2024-03-23T03:00:38;1.10;99.90
11385;DHT22;5747;56.748;13.882;2024-03-23T03:03:05;1.20;99.90
11385;DHT22;5747;56.748;13.882;2024-03-23T03:05:31;1.20;99.90
11385;DHT22;5747;56.748;13.882;2024-03-23T03:07:58;1.30;99.90
11385;DHT22;5747;56.748;13.882;2024-03-23T03:10:24;1.40;99.90
11385;DHT22;5747;56.748;13.882;2024-03-23T03:12:52;1.40;99.90
11385;DHT22;5747;56.748;13.882;2024-03-23T03:15:19;1.50;99.90
11385;DHT22;5747;56.748;13.882;2024-03-23T03:17:46;1.50;99.90
11385;DHT22;5747;56.748;13.882;2024-03-23T03:20:13;1.60;99.90
11385;DHT22;5747;56.748;13.882;2024-03-23T03:22:41;1.70;99.90
11385;DHT22;5747;56.748;13.882;2024-03-23T03:25:08;1.70;99.90
11385;DHT22;5747;56.748;13.882;2024-03-23T03:27:35;1.70;99.90
11385;DHT22;5747;56.748;13.882;2024-03-23T03:30:01;1.80;99.90
11385;DHT22;5747;56.748;13.882;2024-03-23T03:32:33;1.80;99.90
11385;DHT22;5747;56.748;13.882;2024-03-23T03:34:59;1.80;99.90
11385;DHT22;5747;56.748;13.882;2024-03-23T03:37:26;1.90;99.90
11385;DHT22;5747;56.748;13.882;2024-03-23T03:39:53;1.90;99.90
11385;DHT22;5747;56.748;13.882;2024-03-23T03:42:20;1.90;99.90
11385;DHT22;5747;56.748;13.882;2024-03-23T03:44:46;1.90;99.90
11385;DHT22;5747;56.748;13.882;2024-03-23T03:47:13;1.90;99.90
11385;DHT22;5747;56.748;13.882;2024-03-23T03:49:40;1.90;99.90
11385;DHT22;5747;56.748;13.882;2024-03-23T03:52:08;1.90;99.90
11385;DHT22;5747;56.748;13.882;2024-03-23T03:54:34;1.90;99.90
11385;DHT22;5747;56.748;13.882;2024-03-23T03:57:01;1.90;99.90
11385;DHT22;5747;56.748;13.882;2024-03-23T03:59:29;1.90;99.90
11385;DHT22;5747;56.748;13.882;2024-03-23T04:01:56;1.90;99.90
11385;DHT22;5747;56.748;13.882;2024-03-23T04:04:23;1.90;99.90
11385;DHT22;5747;56.748;13.882;2024-03-23T04:06:58;1.80;99.90
11385;DHT22;5747;56.748;13.882;2024-03-23T04:09:25;1.70;99.90
11385;DHT22;5747;56.748;13.882;2024-03-23T04:11:51;1.60;99.90
11385;DHT22;5747;56.748;13.882;2024-03-23T04:14:19;1.60;99.90
11385;DHT22;5747;56.748;13.882;2024-03-23T04:16:45;1.60;99.90
11385;DHT22;5747;56.748;13.882;2024-03-23T04:19:12;1.50;99.90
11385;DHT22;5747;56.748;13.882;2024-03-23T04:21:38;1.70;99.90
11385;DHT22;5747;56.748;13.882;2024-03-23T04:24:07;1.70;99.90
11385;DHT22;5747;56.748;13.882;2024-03-23T04:26:40;1.70;99.90
11385;DHT22;5747;56.748;13.882;2024-03-23T04:29:07;1.80;99.90
11385;DHT22;5747;56.748;13.882;2024-03-23T04:31:34;1.70;99.90
11385;DHT22;5747;56.748;13.882;2024-03-23T04:34:01;1.70;99.90
11385;DHT22;5747;56.748;13.882;2024-03-23T04:36:27;1.70;99.90
11385;DHT22;5747;56.748;13.882;2024-03-23T04:38:55;1.90;99.90
11385;DHT22;5747;56.748;13.882;2024-03-23T04:41:23;1.90;99.90
11385;DHT22;5747;56.748;13.882;2024-03-23T04:43:51;1.90;99.90
11385;DHT22;5747;56.748;13.882;2024-03-23T04:46:18;2.00;99.90
11385;DHT22;5747;56.748;13.882;2024-03-23T04:48:46;2.10;99.90
11385;DHT22;5747;56.748;13.882;2024-03-23T04:51:20;2.10;99.90
11385;DHT22;5747;56.748;13.882;2024-03-23T04:53:48;2.20;99.90
11385;DHT22;5747;56.748;13.882;2024-03-23T04:56:15;2.30;99.90
11385;DHT22;5747;56.748;13.882;2024-03-23T04:58:44;2.30;99.90
11385;DHT22;5747;56.748;13.882;2024-03-23T05:01:10;2.30;99.90
11385;DHT22;5747;56.748;13.882;2024-03-23T05:03:38;2.40;99.90
11385;DHT22;5747;56.748;13.882;2024-03-23T05:06:04;2.40;99.90
11385;DHT22;5747;56.748;13.882;2024-03-23T05:08:32;2.40;99.90
11385;DHT22;5747;56.748;13.882;2024-03-23T05:10:58;2.50;99.90
11385;DHT22;5747;56.748;13.882;2024-03-23T05:13:25;2.50;99.90
11385;DHT22;5747;56.748;13.882;2024-03-23T05:15:54;2.60;99.90
11385;DHT22;5747;56.748;13.882;2024-03-23T05:18:21;2.60;99.90
11385;DHT22;5747;56.748;13.882;2024-03-23T05:20:48;2.60;99.90
11385;DHT22;5747;56.748;13.882;2024-03-23T05:23:15;2.60;99.90
11385;DHT22;5747;56.748;13.882;2024-03-23T05:25:41;2.60;99.90
11385;DHT22;5747;56.748;13.882;2024-03-23T05:28:09;2.60;99.90
11385;DHT22;5747;56.748;13.882;2024-03-23T05:30:36;2.60;99.90
11385;DHT22;5747;56.748;13.882;2024-03-23T05:33:05;2.80;99.90
11385;DHT22;5747;56.748;13.882;2024-03-23T05:35:31;2.80;99.90
11385;DHT22;5747;56.748;13.882;2024-03-23T05:37:58;2.90;99.90
11385;DHT22;5747;56.748;13.882;2024-03-23T05:40:26;2.90;99.90
11385;DHT22;5747;56.748;13.882;2024-03-23T05:42:54;2.90;99.90
11385;DHT22;5747;56.748;13.882;2024-03-23T05:45:21;3.00;99.90
11385;DHT22;5747;56.748;13.882;2024-03-23T05:47:49;3.00;99.90
11385;DHT22;5747;56.748;13.882;2024-03-23T05:50:17;3.00;99.90
11385;DHT22;5747;56.748;13.882;2024-03-23T05:52:45;3.00;99.90
11385;DHT22;5747;56.748;13.882;2024-03-23T05:55:11;3.00;99.90
11385;DHT22;5747;56.748;13.882;2024-03-23T05:57:38;3.00;99.90
11385;DHT22;5747;56.748;13.882;2024-03-23T06:00:06;3.10;99.90
11385;DHT22;5747;56.748;13.882;2024-03-23T06:02:41;3.20;99.90
11385;DHT22;5747;56.748;13.882;2024-03-23T06:05:10;3.20;99.90
11385;DHT22;5747;56.748;13.882;2024-03-23T06:07:39;3.10;99.90
11385;DHT22;5747;56.748;13.882;2024-03-23T06:10:06;3.20;99.90
11385;DHT22;5747;56.748;13.882;2024-03-23T06:12:33;3.20;99.90
11385;DHT22;5747;56.748;13.882;2024-03-23T06:14:59;3.30;99.90
11385;DHT22;5747;56.748;13.882;2024-03-23T06:17:26;3.30;99.90
11385;DHT22;5747;56.748;13.882;2024-03-23T06:19:52;3.40;99.90
11385;DHT22;5747;56.748;13.882;2024-03-23T06:22:20;3.50;99.90
11385;DHT22;5747;56.748;13.882;2024-03-23T06:24:47;3.50;99.90
11385;DHT22;5747;56.748;13.882;2024-03-23T06:27:15;3.40;99.90
11385;DHT22;5747;56.748;13.882;2024-03-23T06:29:41;3.50;99.90
11385;DHT22;5747;56.748;13.882;2024-03-23T06:32:08;3.60;99.90
11385;DHT22;5747;56.748;13.882;2024-03-23T06:34:34;3.70;99.90
11385;DHT22;5747;56.748;13.882;2024-03-23T06:37:01;3.70;99.90
11385;DHT22;5747;56.748;13.882;2024-03-23T06:39:29;3.80;99.90
11385;DHT22;5747;56.748;13.882;2024-03-23T06:41:57;3.90;99.90
11385;DHT22;5747;56.748;13.882;2024-03-23T06:44:23;3.90;99.90
11385;DHT22;5747;56.748;13.882;2024-03-23T06:46:50;3.90;99.90
11385;DHT22;5747;56.748;13.882;2024-03-23T06:49:17;3.90;99.90
11385;DHT22;5747;56.748;13.882;2024-03-23T06:51:45;3.80;99.90
11385;DHT22;5747;56.748;13.882;2024-03-23T06:54:11;3.90;99.90
11385;DHT22;5747;56.748;13.882;2024-03-23T06:56:38;4.00;99.90
11385;DHT22;5747;56.748;13.882;2024-03-23T06:59:06;4.00;99.90
11385;DHT22;5747;56.748;13.882;2024-03-23T07:01:33;4.20;99.90
11385;DHT22;5747;56.748;13.882;2024-03-23T07:04:01;4.20;99.90
11385;DHT22;5747;56.748;13.882;2024-03-23T07:06:28;4.30;99.90
11385;DHT22;5747;56.748;13.882;2024-03-23T07:08:54;4.40;99.90
11385;DHT22;5747;56.748;13.882;2024-03-23T07:11:22;4.40;99.90
11385;DHT22;5747;56.748;13.882;2024-03-23T07:13:49;4.40;99.90
11385;DHT22;5747;56.748;13.882;2024-03-23T07:16:19;4.50;99.90
11385;DHT22;5747;56.748;13.882;2024-03-23T07:18:45;4.50;99.90
11385;DHT22;5747;56.748;13.882;2024-03-23T07:21:12;4.40;99.90
11385;DHT22;5747;56.748;13.882;2024-03-23T07:23:41;4.40;99.90
11385;DHT22;5747;56.748;13.882;2024-03-23T07:26:10;4.50;99.90
11385;DHT22;5747;56.748;13.882;2024-03-23T07:28:37;4.50;99.90
11385;DHT22;5747;56.748;13.882;2024-03-23T07:31:10;4.30;99.90
11385;DHT22;5747;56.748;13.882;2024-03-23T07:33:41;4.20;99.90
11385;DHT22;5747;56.748;13.882;2024-03-23T07:36:09;4.20;99.90
11385;DHT22;5747;56.748;13.882;2024-03-23T07:38:35;4.20;99.90
11385;DHT22;5747;56.748;13.882;2024-03-23T07:41:03;4.10;99.90
11385;DHT22;5747;56.748;13.882;2024-03-23T07:43:30;4.10;99.90
11385;DHT22;5747;56.748;13.882;2024-03-23T07:45:57;4.30;99.90
11385;DHT22;5747;56.748;13.882;2024-03-23T07:48:24;4.20;99.90
11385;DHT22;5747;56.748;13.882;2024-03-23T07:51:03;4.40;99.90
11385;DHT22;5747;56.748;13.882;2024-03-23T07:53:31;4.60;99.90
11385;DHT22;5747;56.748;13.882;2024-03-23T07:55:59;4.80;99.90
11385;DHT22;5747;56.748;13.882;2024-03-23T07:58:26;4.90;99.90
11385;DHT22;5747;56.748;13.882;2024-03-23T08:00:54;5.10;99.90
11385;DHT22;5747;56.748;13.882;2024-03-23T08:03:20;5.10;99.90
11385;DHT22;5747;56.748;13.882;2024-03-23T08:05:47;5.20;99.90
11385;DHT22;5747;56.748;13.882;2024-03-23T08:08:15;5.20;99.90
11385;DHT22;5747;56.748;13.882;2024-03-23T08:10:49;5.30;99.90
11385;DHT22;5747;56.748;13.882;2024-03-23T08:13:15;5.40;99.90
11385;DHT22;5747;56.748;13.882;2024-03-23T08:15:43;5.20;99.90
11385;DHT22;5747;56.748;13.882;2024-03-23T08:18:10;5.40;99.90
11385;DHT22;5747;56.748;13.882;2024-03-23T08:20:37;5.50;99.90
11385;DHT22;5747;56.748;13.882;2024-03-23T08:23:05;5.60;99.90
11385;DHT22;5747;56.748;13.882;2024-03-23T08:25:34;5.50;99.90
11385;DHT22;5747;56.748;13.882;2024-03-23T08:28:01;5.60;99.90
11385;DHT22;5747;56.748;13.882;2024-03-23T08:30:28;5.80;99.90
11385;DHT22;5747;56.748;13.882;2024-03-23T08:32:55;5.90;99.90
11385;DHT22;5747;56.748;13.882;2024-03-23T08:35:22;5.90;99.90
11385;DHT22;5747;56.748;13.882;2024-03-23T08:37:48;5.90;99.90
11385;DHT22;5747;56.748;13.882;2024-03-23T08:40:15;6.10;99.90
11385;DHT22;5747;56.748;13.882;2024-03-23T08:42:43;5.80;99.90
11385;DHT22;5747;56.748;13.882;2024-03-23T08:45:10;5.80;99.90
11385;DHT22;5747;56.748;13.882;2024-03-23T08:47:36;5.90;99.90
11385;DHT22;5747;56.748;13.882;2024-03-23T08:50:04;6.10;99.90
11385;DHT22;5747;56.748;13.882;2024-03-23T08:52:30;6.10;99.90
11385;DHT22;5747;56.748;13.882;2024-03-23T08:54:57;6.00;99.90
11385;DHT22;5747;56.748;13.882;2024-03-23T08:57:24;5.80;99.90
11385;DHT22;5747;56.748;13.882;2024-03-23T08:59:52;5.70;99.90
11385;DHT22;5747;56.748;13.882;2024-03-23T09:02:18;5.50;99.90
11385;DHT22;5747;56.748;13.882;2024-03-23T09:04:46;5.70;99.90
11385;DHT22;5747;56.748;13.882;2024-03-23T09:07:12;5.90;99.90
11385;DHT22;5747;56.748;13.882;2024-03-23T09:09:39;6.20;99.90
11385;DHT22;5747;56.748;13.882;2024-03-23T09:12:06;6.40;99.90
11385;DHT22;5747;56.748;13.882;2024-03-23T09:14:33;6.50;99.90
11385;DHT22;5747;56.748;13.882;2024-03-23T09:17:01;6.60;99.90
11385;DHT22;5747;56.748;13.882;2024-03-23T09:19:28;7.00;99.90
11385;DHT22;5747;56.748;13.882;2024-03-23T09:21:55;7.00;99.90
11385;DHT22;5747;56.748;13.882;2024-03-23T09:24:22;7.20;99.90
11385;DHT22;5747;56.748;13.882;2024-03-23T09:26:48;7.40;99.90
11385;DHT22;5747;56.748;13.882;2024-03-23T09:29:15;7.40;99.90
11385;DHT22;5747;56.748;13.882;2024-03-23T09:31:41;7.60;99.90
11385;DHT22;5747;56.748;13.882;2024-03-23T09:34:10;7.50;99.90
11385;DHT22;5747;56.748;13.882;2024-03-23T09:36:36;7.50;99.90
11385;DHT22;5747;56.748;13.882;2024-03-23T09:39:04;7.70;99.90
11385;DHT22;5747;56.748;13.882;2024-03-23T09:41:31;7.70;99.90
11385;DHT22;5747;56.748;13.882;2024-03-23T09:43:59;7.90;99.90
11385;DHT22;5747;56.748;13.882;2024-03-23T09:46:25;7.70;99.90
11385;DHT22;5747;56.748;13.882;2024-03-23T09:48:52;7.60;99.90
11385;DHT22;5747;56.748;13.882;2024-03-23T09:51:20;7.20;99.90
11385;DHT22;5747;56.748;13.882;2024-03-23T09:53:50;7.40;99.90
11385;DHT22;5747;56.748;13.882;2024-03-23T09:56:16;7.60;99.90
11385;DHT22;5747;56.748;13.882;2024-03-23T09:58:44;7.70;99.90
11385;DHT22;5747;56.748;13.882;2024-03-23T10:01:10;7.70;99.90
11385;DHT22;5747;56.748;13.882;2024-03-23T10:03:44;7.40;99.90
11385;DHT22;5747;56.748;13.882;2024-03-23T10:06:10;7.40;99.90
11385;DHT22;5747;56.748;13.882;2024-03-23T10:08:39;7.30;99.90
11385;DHT22;5747;56.748;13.882;2024-03-23T10:11:14;6.90;99.90
11385;DHT22;5747;56.748;13.882;2024-03-23T10:13:42;7.20;99.90
11385;DHT22;5747;56.748;13.882;2024-03-23T10:16:09;7.70;99.90
11385;DHT22;5747;56.748;13.882;2024-03-23T10:18:39;7.70;99.90
11385;DHT22;5747;56.748;13.882;2024-03-23T10:21:09;8.00;99.90
11385;DHT22;5747;56.748;13.882;2024-03-23T10:23:39;8.20;99.90
11385;DHT22;5747;56.748;13.882;2024-03-23T10:26:13;7.90;99.90
11385;DHT22;5747;56.748;13.882;2024-03-23T10:28:51;7.90;99.90
11385;DHT22;5747;56.748;13.882;2024-03-23T10:31:17;7.70;99.90
11385;DHT22;5747;56.748;13.882;2024-03-23T10:33:48;7.80;99.90
11385;DHT22;5747;56.748;13.882;2024-03-23T10:36:14;7.40;99.90
11385;DHT22;5747;56.748;13.882;2024-03-23T10:38:44;7.10;99.90
11385;DHT22;5747;56.748;13.882;2024-03-23T10:41:10;7.20;99.90
11385;DHT22;5747;56.748;13.882;2024-03-23T10:43:38;7.00;99.90
11385;DHT22;5747;56.748;13.882;2024-03-23T10:46:05;7.00;99.90
11385;DHT22;5747;56.748;13.882;2024-03-23T10:48:33;6.90;99.90
11385;DHT22;5747;56.748;13.882;2024-03-23T10:50:59;7.00;99.90
11385;DHT22;5747;56.748;13.882;2024-03-23T10:53:27;7.10;99.90
11385;DHT22;5747;56.748;13.882;2024-03-23T10:55:56;7.00;99.90
11385;DHT22;5747;56.748;13.882;2024-03-23T10:58:27;7.20;99.90
11385;DHT22;5747;56.748;13.882;2024-03-23T11:00:54;7.60;99.90
11385;DHT22;5747;56.748;13.882;2024-03-23T11:03:32;7.80;99.90
11385;DHT22;5747;56.748;13.882;2024-03-23T11:05:59;8.20;99.90
11385;DHT22;5747;56.748;13.882;2024-03-23T11:08:31;8.20;99.90
11385;DHT22;5747;56.748;13.882;2024-03-23T11:13:54;7.70;99.90
11385;DHT22;5747;56.748;13.882;2024-03-23T11:16:23;7.50;99.90
11385;DHT22;5747;56.748;13.882;2024-03-23T11:18:50;7.60;99.90
11385;DHT22;5747;56.748;13.882;2024-03-23T11:21:51;7.80;99.90
11385;DHT22;5747;56.748;13.882;2024-03-23T11:24:18;8.20;99.90
11385;DHT22;5747;56.748;13.882;2024-03-23T11:26:46;7.70;99.90
11385;DHT22;5747;56.748;13.882;2024-03-23T11:29:15;7.50;99.90
11385;DHT22;5747;56.748;13.882;2024-03-23T11:31:46;7.50;99.90
11385;DHT22;5747;56.748;13.882;2024-03-23T11:34:12;7.50;99.90
11385;DHT22;5747;56.748;13.882;2024-03-23T11:36:40;7.30;99.90
11385;DHT22;5747;56.748;13.882;2024-03-23T11:39:13;6.80;99.90
11385;DHT22;5747;56.748;13.882;2024-03-23T11:41:46;6.60;99.90
11385;DHT22;5747;56.748;13.882;2024-03-23T11:44:18;6.80;99.90
11385;DHT22;5747;56.748;13.882;2024-03-23T11:46:46;7.10;99.90
11385;DHT22;5747;56.748;13.882;2024-03-23T11:49:22;7.40;99.90
11385;DHT22;5747;56.748;13.882;2024-03-23T11:51:50;7.40;99.90
11385;DHT22;5747;56.748;13.882;2024-03-23T11:54:20;7.20;99.90
11385;DHT22;5747;56.748;13.882;2024-03-23T11:56:57;7.20;99.90
11385;DHT22;5747;56.748;13.882;2024-03-23T11:59:32;7.10;99.90
11385;DHT22;5747;56.748;13.882;2024-03-23T12:01:59;7.20;99.90
11385;DHT22;5747;56.748;13.882;2024-03-23T12:04:27;7.20;99.90
11385;DHT22;5747;56.748;13.882;2024-03-23T12:07:10;7.00;99.90
11385;DHT22;5747;56.748;13.882;2024-03-23T12:09:36;7.00;99.90
11385;DHT22;5747;56.748;13.882;2024-03-23T12:12:13;6.90;99.90
11385;DHT22;5747;56.748;13.882;2024-03-23T12:14:42;6.00;99.90
11385;DHT22;5747;56.748;13.882;2024-03-23T12:17:10;5.90;99.90
11385;DHT22;5747;56.748;13.882;2024-03-23T12:19:37;5.90;99.90
11385;DHT22;5747;56.748;13.882;2024-03-23T12:22:04;6.00;99.90
11385;DHT22;5747;56.748;13.882;2024-03-23T12:24:31;5.90;99.90
11385;DHT22;5747;56.748;13.882;2024-03-23T12:27:01;5.80;99.90
11385;DHT22;5747;56.748;13.882;2024-03-23T12:29:28;5.70;99.90
11385;DHT22;5747;56.748;13.882;2024-03-23T12:31:59;5.70;99.90
11385;DHT22;5747;56.748;13.882;2024-03-23T12:34:25;5.70;99.90
11385;DHT22;5747;56.748;13.882;2024-03-23T12:36:53;6.00;99.90
11385;DHT22;5747;56.748;13.882;2024-03-23T12:39:19;6.50;99.90
11385;DHT22;5747;56.748;13.882;2024-03-23T12:41:47;7.00;99.90
11385;DHT22;5747;56.748;13.882;2024-03-23T12:44:13;7.50;99.90
11385;DHT22;5747;56.748;13.882;2024-03-23T12:46:41;8.00;99.90
11385;DHT22;5747;56.748;13.882;2024-03-23T12:49:08;7.90;99.90
11385;DHT22;5747;56.748;13.882;2024-03-23T12:51:36;7.90;99.90
11385;DHT22;5747;56.748;13.882;2024-03-23T12:54:03;8.20;99.90
11385;DHT22;5747;56.748;13.882;2024-03-23T12:56:30;8.50;99.90
11385;DHT22;5747;56.748;13.882;2024-03-23T12:58:57;8.70;99.90
11385;DHT22;5747;56.748;13.882;2024-03-23T13:01:24;8.60;99.90
11385;DHT22;5747;56.748;13.882;2024-03-23T13:03:50;8.20;99.90
11385;DHT22;5747;56.748;13.882;2024-03-23T13:06:19;7.60;99.90
11385;DHT22;5747;56.748;13.882;2024-03-23T13:08:45;7.20;99.90
11385;DHT22;5747;56.748;13.882;2024-03-23T13:11:13;6.90;99.90
11385;DHT22;5747;56.748;13.882;2024-03-23T13:13:39;6.70;99.90
11385;DHT22;5747;56.748;13.882;2024-03-23T13:16:08;6.80;99.90
11385;DHT22;5747;56.748;13.882;2024-03-23T13:18:34;6.80;99.90
11385;DHT22;5747;56.748;13.882;2024-03-23T13:21:01;6.70;99.90
11385;DHT22;5747;56.748;13.882;2024-03-23T13:23:29;6.50;99.90
11385;DHT22;5747;56.748;13.882;2024-03-23T13:25:57;6.30;99.90
11385;DHT22;5747;56.748;13.882;2024-03-23T13:28:23;6.40;99.90
11385;DHT22;5747;56.748;13.882;2024-03-23T13:30:51;6.50;99.90
11385;DHT22;5747;56.748;13.882;2024-03-23T13:33:18;6.60;99.90
11385;DHT22;5747;56.748;13.882;2024-03-23T13:35:51;6.60;99.90
11385;DHT22;5747;56.748;13.882;2024-03-23T13:38:18;6.70;99.90
11385;DHT22;5747;56.748;13.882;2024-03-23T13:40:51;6.40;99.90
11385;DHT22;5747;56.748;13.882;2024-03-23T13:43:17;6.30;99.90
11385;DHT22;5747;56.748;13.882;2024-03-23T13:45:45;6.30;99.90
11385;DHT22;5747;56.748;13.882;2024-03-23T13:48:12;6.30;99.90
11385;DHT22;5747;56.748;13.882;2024-03-23T13:50:38;6.40;99.90
11385;DHT22;5747;56.748;13.882;2024-03-23T13:53:05;6.70;99.90
11385;DHT22;5747;56.748;13.882;2024-03-23T13:55:32;7.20;99.90
11385;DHT22;5747;56.748;13.882;2024-03-23T13:58:00;7.30;99.90
11385;DHT22;5747;56.748;13.882;2024-03-23T14:00:27;7.30;99.90
11385;DHT22;5747;56.748;13.882;2024-03-23T14:02:54;7.30;99.90
11385;DHT22;5747;56.748;13.882;2024-03-23T14:05:20;7.00;99.90
11385;DHT22;5747;56.748;13.882;2024-03-23T14:07:47;7.10;99.90
11385;DHT22;5747;56.748;13.882;2024-03-23T14:10:15;7.20;99.90
11385;DHT22;5747;56.748;13.882;2024-03-23T14:12:42;7.30;99.90
11385;DHT22;5747;56.748;13.882;2024-03-23T14:15:09;7.10;99.90
11385;DHT22;5747;56.748;13.882;2024-03-23T14:17:37;6.90;99.90
11385;DHT22;5747;56.748;13.882;2024-03-23T14:20:03;6.50;99.90
11385;DHT22;5747;56.748;13.882;2024-03-23T14:22:31;6.40;99.90
11385;DHT22;5747;56.748;13.882;2024-03-23T14:24:58;6.30;99.90
11385;DHT22;5747;56.748;13.882;2024-03-23T14:27:25;6.40;99.90
11385;DHT22;5747;56.748;13.882;2024-03-23T14:29:51;6.50;99.90
11385;DHT22;5747;56.748;13.882;2024-03-23T14:32:19;6.90;99.90
11385;DHT22;5747;56.748;13.882;2024-03-23T14:34:46;7.20;99.90
11385;DHT22;5747;56.748;13.882;2024-03-23T14:37:13;7.20;99.90
11385;DHT22;5747;56.748;13.882;2024-03-23T14:39:41;7.30;99.90
11385;DHT22;5747;56.748;13.882;2024-03-23T14:42:10;7.20;99.90
11385;DHT22;5747;56.748;13.882;2024-03-23T14:44:36;7.10;99.90
11385;DHT22;5747;56.748;13.882;2024-03-23T14:47:03;7.00;99.90
11385;DHT22;5747;56.748;13.882;2024-03-23T14:49:31;7.10;99.90
11385;DHT22;5747;56.748;13.882;2024-03-23T14:51:58;7.10;99.90
11385;DHT22;5747;56.748;13.882;2024-03-23T14:54:24;7.00;99.90
11385;DHT22;5747;56.748;13.882;2024-03-23T14:56:52;6.90;99.90
11385;DHT22;5747;56.748;13.882;2024-03-23T14:59:18;6.90;99.90
11385;DHT22;5747;56.748;13.882;2024-03-23T15:01:45;7.00;99.90
11385;DHT22;5747;56.748;13.882;2024-03-23T15:04:12;6.90;99.90
11385;DHT22;5747;56.748;13.882;2024-03-23T15:06:40;6.60;99.90
11385;DHT22;5747;56.748;13.882;2024-03-23T15:09:08;6.70;99.90
11385;DHT22;5747;56.748;13.882;2024-03-23T15:11:37;6.60;99.90
11385;DHT22;5747;56.748;13.882;2024-03-23T15:14:03;6.30;99.90
11385;DHT22;5747;56.748;13.882;2024-03-23T15:16:33;6.10;99.90
11385;DHT22;5747;56.748;13.882;2024-03-23T15:18:59;6.00;99.90
11385;DHT22;5747;56.748;13.882;2024-03-23T15:21:26;5.90;99.90
11385;DHT22;5747;56.748;13.882;2024-03-23T15:23:54;5.80;99.90
11385;DHT22;5747;56.748;13.882;2024-03-23T15:26:21;6.00;99.90
11385;DHT22;5747;56.748;13.882;2024-03-23T15:28:49;6.40;99.90
11385;DHT22;5747;56.748;13.882;2024-03-23T15:31:36;6.80;99.90
11385;DHT22;5747;56.748;13.882;2024-03-23T15:34:02;7.00;99.90
11385;DHT22;5747;56.748;13.882;2024-03-23T15:36:30;7.00;99.90
11385;DHT22;5747;56.748;13.882;2024-03-23T15:38:58;7.00;99.90
11385;DHT22;5747;56.748;13.882;2024-03-23T15:41:25;6.90;99.90
11385;DHT22;5747;56.748;13.882;2024-03-23T15:43:52;6.80;99.90
11385;DHT22;5747;56.748;13.882;2024-03-23T15:46:19;6.80;99.90
11385;DHT22;5747;56.748;13.882;2024-03-23T15:48:45;6.70;99.90
11385;DHT22;5747;56.748;13.882;2024-03-23T15:51:14;6.50;99.90
11385;DHT22;5747;56.748;13.882;2024-03-23T15:53:40;6.30;99.90
11385;DHT22;5747;56.748;13.882;2024-03-23T15:56:09;6.30;99.90
11385;DHT22;5747;56.748;13.882;2024-03-23T15:58:36;6.20;99.90
11385;DHT22;5747;56.748;13.882;2024-03-23T16:01:04;6.20;99.90
11385;DHT22;5747;56.748;13.882;2024-03-23T16:03:32;6.20;99.90
11385;DHT22;5747;56.748;13.882;2024-03-23T16:06:00;6.20;99.90
11385;DHT22;5747;56.748;13.882;2024-03-23T16:08:27;6.10;99.90
11385;DHT22;5747;56.748;13.882;2024-03-23T16:10:54;6.10;99.90
11385;DHT22;5747;56.748;13.882;2024-03-23T16:13:26;6.10;99.90
11385;DHT22;5747;56.748;13.882;2024-03-23T16:15:55;6.00;99.90
11385;DHT22;5747;56.748;13.882;2024-03-23T16:18:21;5.90;99.90
11385;DHT22;5747;56.748;13.882;2024-03-23T16:20:55;5.80;99.90
11385;DHT22;5747;56.748;13.882;2024-03-23T16:23:21;5.70;99.90
11385;DHT22;5747;56.748;13.882;2024-03-23T16:25:49;5.50;99.90
11385;DHT22;5747;56.748;13.882;2024-03-23T16:28:23;5.40;99.90
11385;DHT22;5747;56.748;13.882;2024-03-23T16:30:56;5.30;99.90
11385;DHT22;5747;56.748;13.882;2024-03-23T16:33:22;5.30;99.90
11385;DHT22;5747;56.748;13.882;2024-03-23T16:35:57;5.20;99.90
11385;DHT22;5747;56.748;13.882;2024-03-23T16:38:24;5.10;99.90
11385;DHT22;5747;56.748;13.882;2024-03-23T16:40:59;5.10;99.90
11385;DHT22;5747;56.748;13.882;2024-03-23T16:43:26;4.90;99.90